createdAt,value
2022-08-01T00:00:04.741Z,17.90
2022-08-01T00:02:32.304Z,17.90
2022-08-01T00:04:59.191Z,17.90
2022-08-01T00:07:25.971Z,17.90
2022-08-01T00:09:52.808Z,17.90
2022-08-01T00:12:19.743Z,17.90
2022-08-01T00:14:46.596Z,18.00
2022-08-01T00:17:13.407Z,17.90
2022-08-01T00:19:40.233Z,18.00
2022-08-01T00:22:07.288Z,18.00
2022-08-01T00:24:34.338Z,17.90
2022-08-01T00:27:01.062Z,17.90
2022-08-01T00:30:09.483Z,18.00
2022-08-01T00:32:14.563Z,17.90
2022-08-01T00:34:41.312Z,18.00
2022-08-01T00:37:08.040Z,18.00
2022-08-01T00:39:34.823Z,18.00
2022-08-01T00:42:01.560Z,18.00
2022-08-01T00:44:28.341Z,17.90
2022-08-01T00:46:55.280Z,17.90
2022-08-01T00:49:22.167Z,17.80
2022-08-01T00:51:49.423Z,17.80
2022-08-01T00:54:16.646Z,17.80
2022-08-01T00:56:43.761Z,17.80
2022-08-01T00:59:10.486Z,17.80
2022-08-01T01:01:39.608Z,17.80
2022-08-01T01:04:08.649Z,17.70
2022-08-01T01:06:35.687Z,17.70
2022-08-01T01:09:03.408Z,17.70
2022-08-01T01:11:30.500Z,17.70
2022-08-01T01:13:57.672Z,17.70
2022-08-01T01:16:24.606Z,17.70
2022-08-01T01:18:51.414Z,17.70
2022-08-01T01:21:18.260Z,17.70
2022-08-01T01:23:45.204Z,17.70
2022-08-01T01:26:12.013Z,17.70
2022-08-01T01:28:38.766Z,17.60
2022-08-01T01:31:05.774Z,17.70
2022-08-01T01:33:32.957Z,17.60
2022-08-01T01:35:59.792Z,17.60
2022-08-01T01:38:29.525Z,17.60
2022-08-01T01:40:56.251Z,17.60
2022-08-01T01:43:29.130Z,17.60
2022-08-01T01:46:00.374Z,17.60
2022-08-01T01:48:27.155Z,17.60
2022-08-01T01:50:54.329Z,17.60
2022-08-01T01:53:21.130Z,17.60
2022-08-01T01:55:49.433Z,17.60
2022-08-01T01:58:16.987Z,17.60
2022-08-01T02:00:44.425Z,17.60
2022-08-01T02:03:12.776Z,17.60
2022-08-01T02:05:39.646Z,17.60
2022-08-01T02:08:06.585Z,17.60
2022-08-01T02:10:33.653Z,17.60
2022-08-01T02:13:00.820Z,17.60
2022-08-01T02:15:27.735Z,17.70
2022-08-01T02:17:54.945Z,17.70
2022-08-01T02:20:21.782Z,17.70
2022-08-01T02:22:48.674Z,17.70
2022-08-01T02:25:15.476Z,17.70
2022-08-01T02:27:42.257Z,17.60
2022-08-01T02:30:09.591Z,17.60
2022-08-01T02:32:36.575Z,17.60
2022-08-01T02:35:04.517Z,17.60
2022-08-01T02:37:31.491Z,17.60
2022-08-01T02:39:58.255Z,17.60
2022-08-01T02:42:25.112Z,17.60
2022-08-01T02:44:52.040Z,17.60
2022-08-01T02:47:18.937Z,17.60
2022-08-01T02:49:46.358Z,17.60
2022-08-01T02:52:20.995Z,17.60
2022-08-01T02:54:47.869Z,17.60
2022-08-01T02:57:14.597Z,17.60
2022-08-01T02:59:41.738Z,17.60
2022-08-01T03:02:09.263Z,17.60
2022-08-01T03:04:36.647Z,17.60
2022-08-01T03:07:03.415Z,17.60
2022-08-01T03:09:30.179Z,17.60
2022-08-01T03:11:56.980Z,17.60
2022-08-01T03:14:23.762Z,17.60
2022-08-01T03:16:52.452Z,17.60
2022-08-01T03:19:19.240Z,17.50
2022-08-01T03:21:46.102Z,17.50
2022-08-01T03:24:12.869Z,17.60
2022-08-01T03:26:39.607Z,17.60
2022-08-01T03:29:07.496Z,17.60
2022-08-01T03:31:34.228Z,17.60
2022-08-01T03:34:05.613Z,17.60
2022-08-01T03:36:32.786Z,17.60
2022-08-01T03:38:59.745Z,17.60
2022-08-01T03:41:26.500Z,17.60
2022-08-01T03:43:53.308Z,17.60
2022-08-01T03:46:20.044Z,17.60
2022-08-01T03:48:46.924Z,17.60
2022-08-01T03:51:13.829Z,17.60
2022-08-01T03:53:42.355Z,17.60
2022-08-01T03:56:09.669Z,17.60
2022-08-01T03:58:36.599Z,17.60
2022-08-01T04:01:03.392Z,17.60
2022-08-01T04:03:30.613Z,17.60
2022-08-01T04:05:57.412Z,17.60
2022-08-01T04:08:24.176Z,17.50
2022-08-01T04:10:56.938Z,17.50
2022-08-01T04:13:24.347Z,17.50
2022-08-01T04:15:55.999Z,17.50
2022-08-01T04:18:22.967Z,17.50
2022-08-01T04:20:49.840Z,17.50
2022-08-01T04:23:16.824Z,17.40
2022-08-01T04:25:43.929Z,17.50
2022-08-01T04:28:12.291Z,17.40
2022-08-01T04:30:39.131Z,17.40
2022-08-01T04:33:07.300Z,17.50
2022-08-01T04:36:03.672Z,17.50
2022-08-01T04:38:22.090Z,17.50
2022-08-01T04:40:51.790Z,17.50
2022-08-01T04:43:19.898Z,17.40
2022-08-01T04:45:46.974Z,17.40
2022-08-01T04:48:13.832Z,17.40
2022-08-01T04:50:42.919Z,17.40
2022-08-01T04:53:09.716Z,17.50
2022-08-01T04:55:36.703Z,17.50
2022-08-01T04:58:03.727Z,17.50
2022-08-01T05:00:30.924Z,17.50
2022-08-01T05:02:58.687Z,17.50
2022-08-01T05:05:27.258Z,17.50
2022-08-01T05:07:54.027Z,17.60
2022-08-01T05:10:20.865Z,17.60
2022-08-01T05:12:47.650Z,17.60
2022-08-01T05:15:15.614Z,17.70
2022-08-01T05:17:45.676Z,17.70
2022-08-01T05:20:12.747Z,17.70
2022-08-01T05:22:40.771Z,17.80
2022-08-01T05:25:07.618Z,17.70
2022-08-01T05:27:39.295Z,17.60
2022-08-01T05:30:06.091Z,17.60
2022-08-01T05:32:32.997Z,17.60
2022-08-01T05:35:00.537Z,17.60
2022-08-01T05:37:27.303Z,17.50
2022-08-01T05:39:54.125Z,17.60
2022-08-01T05:42:20.898Z,17.60
2022-08-01T05:44:48.594Z,17.60
2022-08-01T05:47:15.400Z,17.60
2022-08-01T05:49:42.163Z,17.60
2022-08-01T05:52:09.405Z,17.60
2022-08-01T05:54:36.443Z,17.60
2022-08-01T05:57:03.671Z,17.60
2022-08-01T05:59:30.491Z,17.60
2022-08-01T06:01:57.379Z,17.70
2022-08-01T06:04:24.192Z,17.80
2022-08-01T06:06:50.990Z,17.90
2022-08-01T06:09:17.906Z,18.00
2022-08-01T06:11:44.649Z,18.10
2022-08-01T06:14:11.373Z,18.10
2022-08-01T06:16:38.254Z,18.20
2022-08-01T06:19:04.987Z,18.30
2022-08-01T06:21:31.717Z,18.30
2022-08-01T06:23:58.510Z,18.40
2022-08-01T06:26:25.335Z,18.30
2022-08-01T06:28:52.156Z,18.30
2022-08-01T06:31:19.139Z,18.30
2022-08-01T06:33:45.919Z,18.30
2022-08-01T06:36:12.632Z,18.30
2022-08-01T06:38:39.547Z,18.20
2022-08-01T06:41:06.352Z,18.20
2022-08-01T06:43:33.079Z,18.20
2022-08-01T06:45:59.853Z,18.20
2022-08-01T06:48:27.539Z,18.30
2022-08-01T06:51:09.206Z,18.20
2022-08-01T06:53:36.710Z,18.30
2022-08-01T06:56:03.552Z,18.30
2022-08-01T06:58:30.912Z,18.30
2022-08-01T07:00:58.767Z,18.30
2022-08-01T07:03:26.506Z,18.40
2022-08-01T07:06:13.321Z,18.40
2022-08-01T07:08:41.873Z,18.50
2022-08-01T07:11:08.667Z,18.50
2022-08-01T07:13:44.035Z,18.50
2022-08-01T07:16:11.146Z,18.50
2022-08-01T07:18:37.972Z,18.60
2022-08-01T07:21:04.793Z,18.70
2022-08-01T07:23:33.943Z,18.70
2022-08-01T07:26:03.641Z,18.70
2022-08-01T07:28:30.459Z,18.80
2022-08-01T07:30:57.275Z,18.80
2022-08-01T07:33:24.107Z,18.70
2022-08-01T07:35:50.827Z,18.80
2022-08-01T07:38:18.037Z,18.80
2022-08-01T07:40:44.917Z,18.80
2022-08-01T07:43:11.684Z,18.90
2022-08-01T07:45:38.445Z,18.90
2022-08-01T07:48:10.829Z,18.90
2022-08-01T07:50:37.595Z,19.00
2022-08-01T07:53:04.795Z,19.10
2022-08-01T07:55:31.638Z,19.10
2022-08-01T07:57:58.372Z,19.10
2022-08-01T08:00:25.197Z,19.00
2022-08-01T08:02:52.159Z,19.10
2022-08-01T08:05:57.689Z,19.30
2022-08-01T08:08:05.999Z,19.40
2022-08-01T08:10:32.716Z,19.60
2022-08-01T08:12:59.484Z,19.60
2022-08-01T08:15:26.267Z,19.70
2022-08-01T08:17:55.220Z,19.70
2022-08-01T08:22:58.388Z,19.50
2022-08-01T08:25:26.779Z,19.40
2022-08-01T08:27:54.051Z,19.50
2022-08-01T08:30:21.928Z,19.60
2022-08-01T08:32:49.656Z,19.80
2022-08-01T08:35:23.188Z,20.00
2022-08-01T08:38:04.314Z,20.10
2022-08-01T08:40:34.490Z,20.30
2022-08-01T08:43:01.302Z,20.30
2022-08-01T08:45:29.661Z,20.40
2022-08-01T08:48:15.074Z,20.30
2022-08-01T08:50:41.987Z,20.30
2022-08-01T08:53:08.820Z,20.30
2022-08-01T08:55:56.330Z,20.30
2022-08-01T08:58:30.500Z,20.40
2022-08-01T09:00:58.724Z,20.50
2022-08-01T09:03:26.066Z,20.50
2022-08-01T09:05:52.883Z,20.40
2022-08-01T09:08:19.679Z,20.30
2022-08-01T09:10:46.489Z,20.20
2022-08-01T09:13:13.324Z,20.30
2022-08-01T09:15:40.629Z,20.50
2022-08-01T09:18:07.399Z,20.50
2022-08-01T09:20:36.876Z,20.70
2022-08-01T09:23:04.667Z,20.70
2022-08-01T09:25:36.766Z,20.90
2022-08-01T09:28:14.656Z,20.90
2022-08-01T09:30:42.832Z,20.90
2022-08-01T09:33:17.952Z,21.00
2022-08-01T09:36:08.519Z,21.00
2022-08-01T09:38:40.136Z,21.10
2022-08-01T09:41:08.513Z,21.10
2022-08-01T09:43:35.338Z,21.10
2022-08-01T09:46:04.477Z,21.00
2022-08-01T09:48:33.089Z,21.10
2022-08-01T09:51:01.001Z,21.10
2022-08-01T09:53:32.139Z,21.10
2022-08-01T09:56:05.169Z,21.20
2022-08-01T09:58:31.956Z,21.10
2022-08-01T10:00:58.707Z,21.10
2022-08-01T10:03:25.867Z,21.10
2022-08-01T10:05:54.519Z,21.10
2022-08-01T10:08:24.266Z,21.20
2022-08-01T10:10:55.639Z,21.30
2022-08-01T10:13:25.631Z,21.40
2022-08-01T10:16:03.586Z,21.30
2022-08-01T10:18:32.651Z,21.30
2022-08-01T10:20:59.393Z,21.30
2022-08-01T10:23:39.567Z,21.30
2022-08-01T10:26:07.685Z,21.30
2022-08-01T10:28:35.328Z,21.40
2022-08-01T10:31:12.698Z,21.60
2022-08-01T10:33:50.953Z,21.80
2022-08-01T10:36:18.857Z,22.00
2022-08-01T10:38:46.656Z,22.20
2022-08-01T10:41:13.423Z,22.00
2022-08-01T10:43:40.520Z,22.10
2022-08-01T10:46:12.515Z,22.10
2022-08-01T10:48:39.259Z,21.90
2022-08-01T10:51:17.878Z,21.90
2022-08-01T10:53:45.839Z,21.90
2022-08-01T10:56:16.608Z,21.90
2022-08-01T10:58:44.117Z,21.80
2022-08-01T11:01:11.475Z,21.90
2022-08-01T11:04:01.457Z,21.90
2022-08-01T11:06:25.146Z,21.90
2022-08-01T11:08:51.935Z,21.90
2022-08-01T11:11:20.928Z,22.00
2022-08-01T11:13:49.387Z,22.00
2022-08-01T11:16:17.325Z,22.20
2022-08-01T11:18:45.408Z,22.40
2022-08-01T11:21:57.023Z,22.50
2022-08-01T11:24:01.801Z,22.90
2022-08-01T11:26:30.102Z,23.00
2022-08-01T11:29:18.270Z,23.20
2022-08-01T11:31:43.884Z,23.20
2022-08-01T11:34:11.021Z,23.00
2022-08-01T11:39:25.595Z,22.70
2022-08-01T11:41:53.799Z,22.60
2022-08-01T11:44:21.141Z,22.60
2022-08-01T11:46:51.931Z,22.50
2022-08-01T11:49:18.864Z,22.60
2022-08-01T11:51:46.007Z,22.80
2022-08-01T11:54:16.376Z,22.90
2022-08-01T11:57:02.678Z,23.10
2022-08-01T11:59:37.962Z,23.40
2022-08-01T12:02:05.493Z,23.50
2022-08-01T12:04:32.802Z,23.20
2022-08-01T12:07:01.127Z,23.00
2022-08-01T12:09:27.925Z,22.90
2022-08-01T12:11:55.485Z,22.80
2022-08-01T12:14:22.573Z,22.70
2022-08-01T12:16:49.321Z,22.50
2022-08-01T12:19:16.227Z,22.50
2022-08-01T12:21:43.000Z,22.50
2022-08-01T12:24:09.784Z,22.40
2022-08-01T12:26:36.728Z,22.30
2022-08-01T12:29:03.520Z,22.30
2022-08-01T12:31:30.332Z,22.30
2022-08-01T12:33:57.143Z,22.40
2022-08-01T12:36:23.918Z,22.60
2022-08-01T12:38:50.771Z,22.80
2022-08-01T12:41:17.664Z,22.90
2022-08-01T12:43:44.861Z,22.70
2022-08-01T12:46:17.174Z,22.60
2022-08-01T12:48:43.947Z,22.50
2022-08-01T12:51:12.713Z,22.50
2022-08-01T12:53:40.510Z,22.60
2022-08-01T12:56:08.237Z,22.70
2022-08-01T12:58:35.010Z,22.90
2022-08-01T13:01:01.843Z,23.00
2022-08-01T13:03:28.724Z,23.00
2022-08-01T13:05:55.497Z,22.90
2022-08-01T13:08:23.239Z,22.70
2022-08-01T13:10:49.993Z,22.60
2022-08-01T13:13:28.618Z,22.70
2022-08-01T13:15:55.786Z,22.70
2022-08-01T13:18:22.569Z,22.60
2022-08-01T13:20:52.332Z,22.60
2022-08-01T13:23:21.377Z,22.60
2022-08-01T13:26:06.648Z,22.40
2022-08-01T13:28:33.906Z,22.40
2022-08-01T13:31:00.691Z,22.60
2022-08-01T13:33:27.495Z,22.80
2022-08-01T13:35:57.231Z,22.90
2022-08-01T13:38:42.754Z,23.10
2022-08-01T13:41:09.579Z,23.10
2022-08-01T13:43:58.136Z,23.20
2022-08-01T13:46:23.211Z,23.20
2022-08-01T13:48:50.342Z,23.20
2022-08-01T13:51:22.385Z,23.20
2022-08-01T13:53:49.527Z,22.90
2022-08-01T13:56:18.449Z,22.90
2022-08-01T13:58:45.825Z,22.80
2022-08-01T14:01:12.911Z,22.80
2022-08-01T14:03:39.751Z,22.90
2022-08-01T14:06:06.596Z,23.20
2022-08-01T14:08:33.411Z,23.30
2022-08-01T14:11:00.170Z,23.40
2022-08-01T14:13:29.696Z,23.50
2022-08-01T14:15:59.177Z,23.70
2022-08-01T14:18:26.009Z,23.70
2022-08-01T14:20:53.726Z,23.70
2022-08-01T14:23:22.919Z,23.50
2022-08-01T14:26:03.570Z,23.40
2022-08-01T14:28:34.482Z,23.40
2022-08-01T14:31:01.264Z,23.50
2022-08-01T14:33:28.022Z,23.50
2022-08-01T14:36:05.492Z,23.40
2022-08-01T14:38:34.586Z,23.20
2022-08-01T14:41:01.786Z,23.10
2022-08-01T14:43:33.203Z,22.90
2022-08-01T14:46:00.541Z,22.80
2022-08-01T14:48:27.415Z,22.70
2022-08-01T14:50:54.188Z,22.60
2022-08-01T14:53:21.154Z,22.50
2022-08-01T14:55:47.906Z,22.50
2022-08-01T14:58:15.454Z,22.40
2022-08-01T15:00:42.338Z,22.40
2022-08-01T15:03:09.204Z,22.30
2022-08-01T15:05:37.234Z,22.30
2022-08-01T15:08:04.014Z,22.30
2022-08-01T15:10:33.323Z,22.30
2022-08-01T15:13:01.230Z,22.40
2022-08-01T15:15:28.035Z,22.50
2022-08-01T15:17:54.900Z,22.50
2022-08-01T15:20:21.736Z,22.60
2022-08-01T15:22:49.442Z,22.60
2022-08-01T15:25:16.923Z,22.60
2022-08-01T15:27:43.720Z,22.60
2022-08-01T15:30:10.543Z,22.50
2022-08-01T15:32:37.468Z,22.40
2022-08-01T15:35:04.320Z,22.20
2022-08-01T15:37:31.097Z,22.20
2022-08-01T15:39:57.862Z,22.00
2022-08-01T15:42:26.832Z,21.90
2022-08-01T15:44:54.127Z,21.80
2022-08-01T15:47:21.098Z,21.90
2022-08-01T15:49:52.235Z,22.00
2022-08-01T15:52:22.429Z,22.00
2022-08-01T15:54:49.890Z,22.10
2022-08-01T15:57:16.637Z,22.30
2022-08-01T15:59:43.446Z,22.30
2022-08-01T16:02:10.848Z,22.30
2022-08-01T16:04:38.749Z,22.30
2022-08-01T16:07:06.341Z,22.30
2022-08-01T16:09:33.239Z,22.40
2022-08-01T16:12:00.079Z,22.40
2022-08-01T16:14:26.884Z,22.40
2022-08-01T16:16:56.600Z,22.40
2022-08-01T16:19:24.257Z,22.40
2022-08-01T16:21:51.810Z,22.40
2022-08-01T16:24:18.716Z,22.40
2022-08-01T16:26:45.468Z,22.40
2022-08-01T16:29:12.221Z,22.40
2022-08-01T16:31:50.766Z,22.50
2022-08-01T16:34:26.125Z,22.60
2022-08-01T16:36:53.720Z,22.80
2022-08-01T16:39:23.516Z,23.00
2022-08-01T16:41:55.286Z,23.10
2022-08-01T16:44:33.243Z,23.10
2022-08-01T16:47:01.012Z,23.10
2022-08-01T16:49:28.014Z,23.10
2022-08-01T16:51:54.875Z,23.10
2022-08-01T16:54:25.348Z,23.00
2022-08-01T16:56:53.075Z,23.00
2022-08-01T16:59:19.914Z,22.90
2022-08-01T17:01:58.386Z,22.70
2022-08-01T17:04:29.285Z,22.60
2022-08-01T17:06:56.069Z,22.40
2022-08-01T17:09:22.922Z,22.30
2022-08-01T17:11:49.734Z,22.20
2022-08-01T17:14:16.554Z,22.20
2022-08-01T17:16:43.414Z,22.20
2022-08-01T17:19:10.286Z,22.30
2022-08-01T17:21:41.164Z,22.50
2022-08-01T17:24:08.304Z,22.80
2022-08-01T17:26:35.215Z,22.90
2022-08-01T17:29:01.961Z,22.90
2022-08-01T17:31:28.763Z,22.80
2022-08-01T17:33:55.654Z,22.60
2022-08-01T17:36:22.452Z,22.50
2022-08-01T17:38:49.203Z,22.40
2022-08-01T17:41:16.049Z,22.30
2022-08-01T17:43:42.789Z,22.10
2022-08-01T17:46:09.670Z,22.00
2022-08-01T17:48:36.602Z,21.90
2022-08-01T17:51:03.357Z,21.90
2022-08-01T17:53:30.087Z,21.80
2022-08-01T17:55:58.834Z,21.80
2022-08-01T17:58:49.599Z,21.80
2022-08-01T18:01:12.645Z,21.80
2022-08-01T18:03:40.863Z,21.70
2022-08-01T18:06:08.390Z,21.70
2022-08-01T18:08:35.616Z,21.60
2022-08-01T18:11:02.455Z,21.60
2022-08-01T18:13:29.828Z,21.50
2022-08-01T18:15:56.862Z,21.40
2022-08-01T18:18:33.059Z,21.20
2022-08-01T18:21:01.097Z,21.10
2022-08-01T18:23:27.828Z,21.00
2022-08-01T18:25:54.663Z,20.90
2022-08-01T18:28:32.305Z,20.80
2022-08-01T18:31:00.726Z,20.60
2022-08-01T18:33:27.499Z,20.50
2022-08-01T18:35:54.518Z,20.50
2022-08-01T18:38:23.272Z,20.40
2022-08-01T18:40:51.330Z,20.40
2022-08-01T18:43:18.121Z,20.40
2022-08-01T18:45:44.946Z,20.40
2022-08-01T18:48:11.847Z,20.20
2022-08-01T18:50:39.548Z,20.20
2022-08-01T18:53:06.273Z,20.10
2022-08-01T18:55:33.116Z,20.00
2022-08-01T18:57:59.905Z,19.90
2022-08-01T19:00:26.722Z,19.70
2022-08-01T19:02:54.214Z,19.60
2022-08-01T19:05:20.989Z,19.60
2022-08-01T19:08:06.715Z,19.60
2022-08-01T19:10:34.291Z,19.50
2022-08-01T19:13:02.320Z,19.40
2022-08-01T19:15:29.091Z,19.30
2022-08-01T19:17:55.995Z,19.30
2022-08-01T19:20:22.788Z,19.30
2022-08-01T19:22:49.573Z,19.20
2022-08-01T19:25:16.448Z,19.20
2022-08-01T19:27:43.286Z,19.20
2022-08-01T19:30:10.130Z,19.30
2022-08-01T19:32:37.034Z,19.20
2022-08-01T19:35:03.864Z,19.20
2022-08-01T19:37:30.848Z,19.10
2022-08-01T19:39:57.628Z,19.00
2022-08-01T19:42:24.405Z,19.00
2022-08-01T19:44:51.126Z,19.00
2022-08-01T19:47:17.925Z,18.90
2022-08-01T19:49:44.702Z,18.90
2022-08-01T19:52:11.596Z,18.80
2022-08-01T19:54:38.433Z,18.80
2022-08-01T19:57:05.581Z,18.80
2022-08-01T19:59:32.528Z,18.80
2022-08-01T20:01:59.507Z,18.80
2022-08-01T20:04:26.283Z,18.80
2022-08-01T20:06:53.188Z,18.70
2022-08-01T20:09:20.043Z,18.70
2022-08-01T20:11:46.802Z,18.70
2022-08-01T20:14:13.828Z,18.60
2022-08-01T20:16:40.662Z,18.60
2022-08-01T20:19:07.465Z,18.60
2022-08-01T20:21:34.204Z,18.50
2022-08-01T20:24:02.746Z,18.40
2022-08-01T20:26:29.989Z,18.40
2022-08-01T20:28:56.814Z,18.30
2022-08-01T20:31:26.753Z,18.30
2022-08-01T20:34:00.597Z,18.20
2022-08-01T20:36:27.507Z,18.10
2022-08-01T20:38:54.910Z,18.10
2022-08-01T20:41:21.645Z,18.00
2022-08-01T20:43:48.597Z,17.90
2022-08-01T20:46:15.321Z,17.90
2022-08-01T20:48:42.112Z,17.90
2022-08-01T20:51:14.976Z,17.80
2022-08-01T20:53:41.935Z,17.80
2022-08-01T20:56:09.202Z,17.90
2022-08-01T20:58:36.096Z,17.90
2022-08-01T21:01:04.731Z,17.80
2022-08-01T21:03:36.760Z,17.90
2022-08-01T21:06:03.486Z,17.80
2022-08-01T21:08:30.230Z,17.90
2022-08-01T21:10:57.057Z,17.90
2022-08-01T21:13:23.780Z,17.90
2022-08-01T21:15:59.916Z,17.90
2022-08-01T21:18:37.956Z,17.90
2022-08-01T21:21:04.706Z,17.90
2022-08-01T21:23:31.506Z,17.90
2022-08-01T21:25:58.326Z,17.90
2022-08-01T21:28:25.114Z,17.80
2022-08-01T21:30:55.690Z,17.80
2022-08-01T21:33:23.353Z,17.70
2022-08-01T21:35:52.241Z,17.70
2022-08-01T21:38:18.986Z,17.70
2022-08-01T21:40:45.869Z,17.60
2022-08-01T21:43:12.750Z,17.60
2022-08-01T21:45:57.352Z,17.60
2022-08-01T21:48:27.037Z,17.60
2022-08-01T21:50:57.312Z,17.60
2022-08-01T21:53:32.382Z,17.60
2022-08-01T21:55:59.425Z,17.50
2022-08-01T21:58:26.907Z,17.50
2022-08-01T22:00:54.225Z,17.50
2022-08-01T22:03:21.565Z,17.40
2022-08-01T22:05:50.494Z,17.30
2022-08-01T22:08:18.139Z,17.30
2022-08-01T22:10:44.926Z,17.20
2022-08-01T22:13:12.243Z,17.20
2022-08-01T22:15:45.171Z,17.20
2022-08-01T22:18:12.338Z,17.10
2022-08-01T22:20:39.196Z,17.10
2022-08-01T22:23:06.610Z,17.10
2022-08-01T22:25:33.513Z,17.10
2022-08-01T22:28:06.535Z,17.10
2022-08-01T22:30:36.073Z,17.10
2022-08-01T22:33:15.474Z,17.00
2022-08-01T22:35:42.746Z,16.90
2022-08-01T22:38:09.938Z,16.80
2022-08-01T22:40:36.829Z,16.80
2022-08-01T22:43:03.785Z,16.70
2022-08-01T22:45:30.522Z,16.70
2022-08-01T22:47:57.332Z,16.60
2022-08-01T22:50:36.010Z,16.60
2022-08-01T22:53:03.387Z,16.50
2022-08-01T22:55:58.532Z,16.50
2022-08-01T22:58:19.761Z,16.50
2022-08-01T23:00:46.623Z,16.50
2022-08-01T23:03:13.501Z,16.50
2022-08-01T23:05:40.249Z,16.50
2022-08-01T23:08:07.147Z,16.50
2022-08-01T23:10:41.596Z,16.50
2022-08-01T23:13:08.484Z,16.50
2022-08-01T23:15:35.248Z,16.50
2022-08-01T23:18:02.047Z,16.40
2022-08-01T23:20:28.829Z,16.30
2022-08-01T23:22:55.582Z,16.30
2022-08-01T23:25:22.312Z,16.30
2022-08-01T23:27:51.625Z,16.30
2022-08-01T23:30:31.579Z,16.30
2022-08-01T23:32:58.358Z,16.20
2022-08-01T23:35:25.123Z,16.20
2022-08-01T23:37:51.991Z,16.20
2022-08-01T23:40:18.799Z,16.20
2022-08-01T23:42:45.523Z,16.10
2022-08-01T23:45:12.285Z,16.10
2022-08-01T23:47:39.062Z,16.10
2022-08-01T23:50:07.712Z,16.00
2022-08-01T23:52:34.557Z,16.00
2022-08-01T23:55:14.878Z,16.00
2022-08-01T23:57:42.140Z,15.90
